sensor_id;sensor_type;location;lat;lon;timestamp;P1;durP1;ratioP1;P2;durP2;ratioP2
38182;SDS011;23991;52.430;10.586;2023-07-29T00:01:43;6.25;;;3.80;;
38182;SDS011;23991;52.430;10.586;2023-07-29T00:04:09;7.55;;;4.40;;
38182;SDS011;23991;52.430;10.586;2023-07-29T00:06:35;6.68;;;4.18;;
38182;SDS011;23991;52.430;10.586;2023-07-29T00:09:01;4.88;;;3.83;;
38182;SDS011;23991;52.430;10.586;2023-07-29T00:11:27;5.18;;;3.53;;
38182;SDS011;23991;52.430;10.586;2023-07-29T00:13:57;6.60;;;4.07;;
38182;SDS011;23991;52.430;10.586;2023-07-29T00:16:23;6.35;;;4.03;;
38182;SDS011;23991;52.430;10.586;2023-07-29T00:18:48;5.00;;;3.92;;
38182;SDS011;23991;52.430;10.586;2023-07-29T00:21:14;9.15;;;4.30;;
38182;SDS011;23991;52.430;10.586;2023-07-29T00:23:40;5.75;;;4.18;;
38182;SDS011;23991;52.430;10.586;2023-07-29T00:26:05;6.68;;;4.60;;
38182;SDS011;23991;52.430;10.586;2023-07-29T00:28:31;5.40;;;4.05;;
38182;SDS011;23991;52.430;10.586;2023-07-29T00:30:57;6.40;;;4.20;;
38182;SDS011;23991;52.430;10.586;2023-07-29T00:33:22;10.20;;;4.88;;
38182;SDS011;23991;52.430;10.586;2023-07-29T00:35:48;6.65;;;4.05;;
38182;SDS011;23991;52.430;10.586;2023-07-29T00:38:13;5.88;;;4.22;;
38182;SDS011;23991;52.430;10.586;2023-07-29T00:40:39;6.57;;;4.15;;
38182;SDS011;23991;52.430;10.586;2023-07-29T00:43:05;7.68;;;4.18;;
38182;SDS011;23991;52.430;10.586;2023-07-29T00:45:31;7.28;;;3.88;;
38182;SDS011;23991;52.430;10.586;2023-07-29T00:47:58;8.52;;;4.18;;
38182;SDS011;23991;52.430;10.586;2023-07-29T00:50:24;5.05;;;3.70;;
38182;SDS011;23991;52.430;10.586;2023-07-29T00:52:52;9.23;;;4.30;;
38182;SDS011;23991;52.430;10.586;2023-07-29T00:55:18;7.32;;;3.85;;
38182;SDS011;23991;52.430;10.586;2023-07-29T00:57:44;5.28;;;3.97;;
38182;SDS011;23991;52.430;10.586;2023-07-29T01:00:13;4.80;;;3.80;;
38182;SDS011;23991;52.430;10.586;2023-07-29T01:02:39;7.15;;;3.65;;
38182;SDS011;23991;52.430;10.586;2023-07-29T01:05:05;5.30;;;3.88;;
38182;SDS011;23991;52.430;10.586;2023-07-29T01:07:33;5.38;;;3.97;;
38182;SDS011;23991;52.430;10.586;2023-07-29T01:10:21;7.72;;;3.45;;
38182;SDS011;23991;52.430;10.586;2023-07-29T01:13:06;5.82;;;3.70;;
38182;SDS011;23991;52.430;10.586;2023-07-29T01:16:10;5.87;;;3.80;;
38182;SDS011;23991;52.430;10.586;2023-07-29T01:18:42;4.80;;;3.17;;
38182;SDS011;23991;52.430;10.586;2023-07-29T01:21:12;5.60;;;3.28;;
38182;SDS011;23991;52.430;10.586;2023-07-29T01:23:39;4.13;;;3.03;;
38182;SDS011;23991;52.430;10.586;2023-07-29T01:26:04;4.35;;;3.45;;
38182;SDS011;23991;52.430;10.586;2023-07-29T01:28:30;5.03;;;3.20;;
38182;SDS011;23991;52.430;10.586;2023-07-29T01:33:56;3.97;;;2.95;;
38182;SDS011;23991;52.430;10.586;2023-07-29T01:36:27;4.90;;;2.95;;
38182;SDS011;23991;52.430;10.586;2023-07-29T01:38:54;4.85;;;2.88;;
38182;SDS011;23991;52.430;10.586;2023-07-29T01:41:21;4.85;;;2.72;;
38182;SDS011;23991;52.430;10.586;2023-07-29T01:43:47;4.30;;;2.78;;
38182;SDS011;23991;52.430;10.586;2023-07-29T01:46:14;5.30;;;3.30;;
38182;SDS011;23991;52.430;10.586;2023-07-29T01:48:40;2.85;;;2.40;;
38182;SDS011;23991;52.430;10.586;2023-07-29T01:51:06;2.65;;;2.33;;
38182;SDS011;23991;52.430;10.586;2023-07-29T01:53:32;3.33;;;2.60;;
38182;SDS011;23991;52.430;10.586;2023-07-29T01:55:58;3.92;;;2.40;;
38182;SDS011;23991;52.430;10.586;2023-07-29T01:58:24;3.08;;;2.22;;
38182;SDS011;23991;52.430;10.586;2023-07-29T02:00:50;10.82;;;2.50;;
38182;SDS011;23991;52.430;10.586;2023-07-29T02:03:15;3.72;;;2.30;;
38182;SDS011;23991;52.430;10.586;2023-07-29T02:05:44;3.33;;;2.20;;
38182;SDS011;23991;52.430;10.586;2023-07-29T02:08:10;3.05;;;2.10;;
38182;SDS011;23991;52.430;10.586;2023-07-29T02:10:36;4.80;;;1.95;;
38182;SDS011;23991;52.430;10.586;2023-07-29T02:13:02;3.13;;;2.20;;
38182;SDS011;23991;52.430;10.586;2023-07-29T02:15:28;2.55;;;1.85;;
38182;SDS011;23991;52.430;10.586;2023-07-29T02:17:54;2.78;;;1.90;;
38182;SDS011;23991;52.430;10.586;2023-07-29T02:20:29;2.58;;;1.90;;
38182;SDS011;23991;52.430;10.586;2023-07-29T02:22:54;5.20;;;2.20;;
38182;SDS011;23991;52.430;10.586;2023-07-29T02:25:20;2.17;;;1.95;;
38182;SDS011;23991;52.430;10.586;2023-07-29T02:27:45;2.88;;;1.98;;
38182;SDS011;23991;52.430;10.586;2023-07-29T02:30:11;5.72;;;1.90;;
38182;SDS011;23991;52.430;10.586;2023-07-29T02:32:37;3.70;;;1.88;;
38182;SDS011;23991;52.430;10.586;2023-07-29T02:35:03;4.03;;;2.17;;
38182;SDS011;23991;52.430;10.586;2023-07-29T02:37:29;5.30;;;2.60;;
38182;SDS011;23991;52.430;10.586;2023-07-29T02:39:55;2.67;;;1.90;;
38182;SDS011;23991;52.430;10.586;2023-07-29T02:42:21;2.78;;;1.88;;
38182;SDS011;23991;52.430;10.586;2023-07-29T02:44:46;3.47;;;1.90;;
38182;SDS011;23991;52.430;10.586;2023-07-29T02:47:12;2.47;;;1.90;;
38182;SDS011;23991;52.430;10.586;2023-07-29T02:49:40;2.50;;;2.20;;
38182;SDS011;23991;52.430;10.586;2023-07-29T02:52:06;2.63;;;2.20;;
38182;SDS011;23991;52.430;10.586;2023-07-29T02:54:35;3.72;;;2.22;;
38182;SDS011;23991;52.430;10.586;2023-07-29T02:57:00;3.00;;;2.10;;
38182;SDS011;23991;52.430;10.586;2023-07-29T02:59:26;2.72;;;1.95;;
38182;SDS011;23991;52.430;10.586;2023-07-29T03:01:52;2.28;;;1.80;;
38182;SDS011;23991;52.430;10.586;2023-07-29T03:04:18;6.43;;;2.13;;
38182;SDS011;23991;52.430;10.586;2023-07-29T03:06:44;3.58;;;2.05;;
38182;SDS011;23991;52.430;10.586;2023-07-29T03:09:09;2.92;;;2.15;;
38182;SDS011;23991;52.430;10.586;2023-07-29T03:11:35;5.57;;;2.03;;
38182;SDS011;23991;52.430;10.586;2023-07-29T03:14:00;3.00;;;2.40;;
38182;SDS011;23991;52.430;10.586;2023-07-29T03:16:27;4.03;;;2.40;;
38182;SDS011;23991;52.430;10.586;2023-07-29T03:18:52;3.00;;;2.10;;
38182;SDS011;23991;52.430;10.586;2023-07-29T03:21:18;3.72;;;1.88;;
38182;SDS011;23991;52.430;10.586;2023-07-29T03:23:43;2.70;;;1.92;;
38182;SDS011;23991;52.430;10.586;2023-07-29T03:26:09;5.20;;;2.05;;
38182;SDS011;23991;52.430;10.586;2023-07-29T03:28:41;4.18;;;2.10;;
38182;SDS011;23991;52.430;10.586;2023-07-29T03:31:07;3.03;;;2.00;;
38182;SDS011;23991;52.430;10.586;2023-07-29T03:33:33;5.25;;;1.98;;
38182;SDS011;23991;52.430;10.586;2023-07-29T03:35:59;2.60;;;2.10;;
38182;SDS011;23991;52.430;10.586;2023-07-29T03:38:25;3.75;;;1.85;;
38182;SDS011;23991;52.430;10.586;2023-07-29T03:40:51;2.70;;;1.90;;
38182;SDS011;23991;52.430;10.586;2023-07-29T03:43:16;3.03;;;1.92;;
38182;SDS011;23991;52.430;10.586;2023-07-29T03:45:42;2.60;;;1.90;;
38182;SDS011;23991;52.430;10.586;2023-07-29T03:48:08;3.90;;;2.00;;
38182;SDS011;23991;52.430;10.586;2023-07-29T03:50:34;3.47;;;1.88;;
38182;SDS011;23991;52.430;10.586;2023-07-29T03:53:00;2.53;;;1.90;;
38182;SDS011;23991;52.430;10.586;2023-07-29T03:55:26;2.53;;;1.85;;
38182;SDS011;23991;52.430;10.586;2023-07-29T03:57:52;2.50;;;1.98;;
38182;SDS011;23991;52.430;10.586;2023-07-29T04:00:18;4.32;;;2.20;;
38182;SDS011;23991;52.430;10.586;2023-07-29T04:02:43;3.72;;;2.25;;
38182;SDS011;23991;52.430;10.586;2023-07-29T04:05:10;5.55;;;2.25;;
38182;SDS011;23991;52.430;10.586;2023-07-29T04:07:36;3.08;;;2.10;;
38182;SDS011;23991;52.430;10.586;2023-07-29T04:10:02;3.30;;;1.98;;
38182;SDS011;23991;52.430;10.586;2023-07-29T04:12:28;2.83;;;2.05;;
38182;SDS011;23991;52.430;10.586;2023-07-29T04:14:53;2.53;;;1.88;;
38182;SDS011;23991;52.430;10.586;2023-07-29T04:17:19;2.58;;;1.90;;
38182;SDS011;23991;52.430;10.586;2023-07-29T04:19:44;2.15;;;1.77;;
38182;SDS011;23991;52.430;10.586;2023-07-29T04:22:10;3.85;;;2.15;;
38182;SDS011;23991;52.430;10.586;2023-07-29T04:24:35;3.72;;;2.17;;
38182;SDS011;23991;52.430;10.586;2023-07-29T04:27:01;4.68;;;2.20;;
38182;SDS011;23991;52.430;10.586;2023-07-29T04:29:27;3.90;;;2.10;;
38182;SDS011;23991;52.430;10.586;2023-07-29T04:31:56;3.70;;;2.20;;
38182;SDS011;23991;52.430;10.586;2023-07-29T04:34:21;2.65;;;1.98;;
38182;SDS011;23991;52.430;10.586;2023-07-29T04:36:47;6.50;;;2.10;;
38182;SDS011;23991;52.430;10.586;2023-07-29T04:39:13;3.53;;;1.80;;
38182;SDS011;23991;52.430;10.586;2023-07-29T04:41:38;3.45;;;2.00;;
38182;SDS011;23991;52.430;10.586;2023-07-29T04:44:04;5.18;;;2.13;;
38182;SDS011;23991;52.430;10.586;2023-07-29T04:46:30;3.03;;;1.90;;
38182;SDS011;23991;52.430;10.586;2023-07-29T04:48:55;3.83;;;2.00;;
38182;SDS011;23991;52.430;10.586;2023-07-29T04:51:21;3.35;;;2.13;;
38182;SDS011;23991;52.430;10.586;2023-07-29T04:53:46;5.28;;;2.45;;
38182;SDS011;23991;52.430;10.586;2023-07-29T04:56:12;2.92;;;2.35;;
38182;SDS011;23991;52.430;10.586;2023-07-29T04:58:38;2.60;;;2.00;;
38182;SDS011;23991;52.430;10.586;2023-07-29T05:01:06;5.93;;;1.90;;
38182;SDS011;23991;52.430;10.586;2023-07-29T05:03:32;6.13;;;2.28;;
38182;SDS011;23991;52.430;10.586;2023-07-29T05:05:58;2.50;;;2.05;;
38182;SDS011;23991;52.430;10.586;2023-07-29T05:08:25;3.45;;;1.90;;
38182;SDS011;23991;52.430;10.586;2023-07-29T05:10:51;4.82;;;2.00;;
38182;SDS011;23991;52.430;10.586;2023-07-29T05:13:18;3.30;;;1.83;;
38182;SDS011;23991;52.430;10.586;2023-07-29T05:15:44;3.10;;;2.03;;
38182;SDS011;23991;52.430;10.586;2023-07-29T05:18:11;2.08;;;1.70;;
38182;SDS011;23991;52.430;10.586;2023-07-29T05:20:37;4.53;;;1.85;;
38182;SDS011;23991;52.430;10.586;2023-07-29T05:23:02;3.65;;;1.92;;
38182;SDS011;23991;52.430;10.586;2023-07-29T05:25:28;2.47;;;1.83;;
38182;SDS011;23991;52.430;10.586;2023-07-29T05:27:54;2.38;;;1.70;;
38182;SDS011;23991;52.430;10.586;2023-07-29T05:30:20;3.33;;;1.90;;
38182;SDS011;23991;52.430;10.586;2023-07-29T05:32:45;2.78;;;1.80;;
38182;SDS011;23991;52.430;10.586;2023-07-29T05:35:11;5.00;;;1.90;;
38182;SDS011;23991;52.430;10.586;2023-07-29T05:37:40;3.50;;;2.58;;
38182;SDS011;23991;52.430;10.586;2023-07-29T05:40:06;3.53;;;2.08;;
38182;SDS011;23991;52.430;10.586;2023-07-29T05:42:32;4.00;;;2.30;;
38182;SDS011;23991;52.430;10.586;2023-07-29T05:44:59;2.63;;;1.88;;
38182;SDS011;23991;52.430;10.586;2023-07-29T05:47:24;4.70;;;1.80;;
38182;SDS011;23991;52.430;10.586;2023-07-29T05:49:50;2.70;;;2.03;;
38182;SDS011;23991;52.430;10.586;2023-07-29T05:52:16;3.60;;;1.85;;
38182;SDS011;23991;52.430;10.586;2023-07-29T05:54:41;2.20;;;1.70;;
38182;SDS011;23991;52.430;10.586;2023-07-29T05:57:13;3.15;;;1.70;;
38182;SDS011;23991;52.430;10.586;2023-07-29T05:59:38;3.28;;;2.00;;
38182;SDS011;23991;52.430;10.586;2023-07-29T06:02:04;3.47;;;2.22;;
38182;SDS011;23991;52.430;10.586;2023-07-29T06:04:30;3.83;;;1.85;;
38182;SDS011;23991;52.430;10.586;2023-07-29T06:06:55;4.65;;;2.25;;
38182;SDS011;23991;52.430;10.586;2023-07-29T06:09:24;5.70;;;2.00;;
38182;SDS011;23991;52.430;10.586;2023-07-29T06:11:52;3.30;;;1.90;;
38182;SDS011;23991;52.430;10.586;2023-07-29T06:14:18;2.28;;;1.67;;
38182;SDS011;23991;52.430;10.586;2023-07-29T06:16:43;2.80;;;1.85;;
38182;SDS011;23991;52.430;10.586;2023-07-29T06:19:09;2.67;;;1.60;;
38182;SDS011;23991;52.430;10.586;2023-07-29T06:21:34;3.63;;;1.50;;
38182;SDS011;23991;52.430;10.586;2023-07-29T06:24:00;4.65;;;1.95;;
38182;SDS011;23991;52.430;10.586;2023-07-29T06:26:26;2.60;;;1.70;;
38182;SDS011;23991;52.430;10.586;2023-07-29T06:28:52;5.22;;;2.00;;
38182;SDS011;23991;52.430;10.586;2023-07-29T06:31:17;3.08;;;1.98;;
38182;SDS011;23991;52.430;10.586;2023-07-29T06:33:43;2.22;;;1.67;;
38182;SDS011;23991;52.430;10.586;2023-07-29T06:36:08;2.55;;;1.85;;
38182;SDS011;23991;52.430;10.586;2023-07-29T06:38:34;2.67;;;1.92;;
38182;SDS011;23991;52.430;10.586;2023-07-29T06:40:59;6.60;;;1.65;;
38182;SDS011;23991;52.430;10.586;2023-07-29T06:43:25;2.30;;;1.67;;
38182;SDS011;23991;52.430;10.586;2023-07-29T06:45:50;3.08;;;1.90;;
38182;SDS011;23991;52.430;10.586;2023-07-29T06:48:20;3.05;;;1.80;;
38182;SDS011;23991;52.430;10.586;2023-07-29T06:50:45;5.20;;;2.10;;
38182;SDS011;23991;52.430;10.586;2023-07-29T06:53:11;2.92;;;1.70;;
38182;SDS011;23991;52.430;10.586;2023-07-29T06:55:37;5.25;;;2.10;;
38182;SDS011;23991;52.430;10.586;2023-07-29T06:58:02;3.80;;;2.13;;
38182;SDS011;23991;52.430;10.586;2023-07-29T07:00:28;3.65;;;1.90;;
38182;SDS011;23991;52.430;10.586;2023-07-29T07:02:53;6.47;;;2.10;;
38182;SDS011;23991;52.430;10.586;2023-07-29T07:05:19;3.25;;;2.00;;
38182;SDS011;23991;52.430;10.586;2023-07-29T07:07:47;3.03;;;2.10;;
38182;SDS011;23991;52.430;10.586;2023-07-29T07:10:13;4.22;;;2.30;;
38182;SDS011;23991;52.430;10.586;2023-07-29T07:12:39;4.53;;;2.30;;
38182;SDS011;23991;52.430;10.586;2023-07-29T07:15:05;7.03;;;2.35;;
38182;SDS011;23991;52.430;10.586;2023-07-29T07:17:31;3.70;;;2.53;;
38182;SDS011;23991;52.430;10.586;2023-07-29T07:19:56;5.95;;;2.55;;
38182;SDS011;23991;52.430;10.586;2023-07-29T07:22:22;5.05;;;2.60;;
38182;SDS011;23991;52.430;10.586;2023-07-29T07:24:48;3.92;;;2.45;;
38182;SDS011;23991;52.430;10.586;2023-07-29T07:27:14;4.80;;;2.38;;
38182;SDS011;23991;52.430;10.586;2023-07-29T07:29:42;4.60;;;2.38;;
38182;SDS011;23991;52.430;10.586;2023-07-29T07:32:08;4.70;;;2.53;;
38182;SDS011;23991;52.430;10.586;2023-07-29T07:34:33;3.83;;;2.30;;
38182;SDS011;23991;52.430;10.586;2023-07-29T07:36:59;3.33;;;2.60;;
38182;SDS011;23991;52.430;10.586;2023-07-29T07:39:25;5.05;;;3.03;;
38182;SDS011;23991;52.430;10.586;2023-07-29T07:41:51;3.83;;;2.67;;
38182;SDS011;23991;52.430;10.586;2023-07-29T07:44:17;4.70;;;2.47;;
38182;SDS011;23991;52.430;10.586;2023-07-29T07:46:44;4.25;;;2.60;;
38182;SDS011;23991;52.430;10.586;2023-07-29T07:49:10;5.80;;;2.60;;
38182;SDS011;23991;52.430;10.586;2023-07-29T07:51:35;4.43;;;2.42;;
38182;SDS011;23991;52.430;10.586;2023-07-29T07:54:01;3.60;;;2.42;;
38182;SDS011;23991;52.430;10.586;2023-07-29T07:56:27;4.20;;;2.40;;
38182;SDS011;23991;52.430;10.586;2023-07-29T07:58:52;3.15;;;2.20;;
38182;SDS011;23991;52.430;10.586;2023-07-29T08:01:18;3.00;;;2.20;;
38182;SDS011;23991;52.430;10.586;2023-07-29T08:03:43;3.70;;;2.42;;
38182;SDS011;23991;52.430;10.586;2023-07-29T08:06:09;2.70;;;2.30;;
38182;SDS011;23991;52.430;10.586;2023-07-29T08:08:34;3.42;;;2.30;;
38182;SDS011;23991;52.430;10.586;2023-07-29T08:11:03;4.43;;;2.42;;
38182;SDS011;23991;52.430;10.586;2023-07-29T08:13:28;2.72;;;2.00;;
38182;SDS011;23991;52.430;10.586;2023-07-29T08:15:54;2.55;;;1.90;;
38182;SDS011;23991;52.430;10.586;2023-07-29T08:18:20;3.50;;;1.85;;
38182;SDS011;23991;52.430;10.586;2023-07-29T08:20:56;3.22;;;2.03;;
38182;SDS011;23991;52.430;10.586;2023-07-29T08:23:24;3.15;;;2.00;;
38182;SDS011;23991;52.430;10.586;2023-07-29T08:25:53;3.03;;;2.00;;
38182;SDS011;23991;52.430;10.586;2023-07-29T08:28:21;2.70;;;1.85;;
38182;SDS011;23991;52.430;10.586;2023-07-29T08:30:47;3.88;;;2.60;;
38182;SDS011;23991;52.430;10.586;2023-07-29T08:33:13;5.55;;;3.40;;
38182;SDS011;23991;52.430;10.586;2023-07-29T08:35:39;2.55;;;1.77;;
38182;SDS011;23991;52.430;10.586;2023-07-29T08:38:05;2.72;;;2.05;;
38182;SDS011;23991;52.430;10.586;2023-07-29T08:40:31;2.88;;;1.70;;
38182;SDS011;23991;52.430;10.586;2023-07-29T08:42:59;3.97;;;2.10;;
38182;SDS011;23991;52.430;10.586;2023-07-29T08:45:29;4.32;;;1.65;;
38182;SDS011;23991;52.430;10.586;2023-07-29T08:50:29;2.10;;;1.48;;
38182;SDS011;23991;52.430;10.586;2023-07-29T08:53:00;2.80;;;1.50;;
38182;SDS011;23991;52.430;10.586;2023-07-29T08:55:28;3.63;;;1.55;;
38182;SDS011;23991;52.430;10.586;2023-07-29T08:57:54;2.60;;;1.70;;
38182;SDS011;23991;52.430;10.586;2023-07-29T09:00:20;2.58;;;1.63;;
38182;SDS011;23991;52.430;10.586;2023-07-29T09:02:47;3.53;;;1.75;;
38182;SDS011;23991;52.430;10.586;2023-07-29T09:05:12;2.40;;;1.50;;
38182;SDS011;23991;52.430;10.586;2023-07-29T09:07:38;2.90;;;1.80;;
38182;SDS011;23991;52.430;10.586;2023-07-29T09:10:04;3.47;;;1.70;;
38182;SDS011;23991;52.430;10.586;2023-07-29T09:12:36;2.17;;;1.50;;
38182;SDS011;23991;52.430;10.586;2023-07-29T09:15:02;4.93;;;1.42;;
38182;SDS011;23991;52.430;10.586;2023-07-29T09:17:30;3.35;;;1.65;;
38182;SDS011;23991;52.430;10.586;2023-07-29T09:19:57;2.33;;;1.70;;
38182;SDS011;23991;52.430;10.586;2023-07-29T09:22:23;3.22;;;1.75;;
38182;SDS011;23991;52.430;10.586;2023-07-29T09:24:51;2.70;;;1.42;;
38182;SDS011;23991;52.430;10.586;2023-07-29T09:27:23;2.78;;;1.50;;
38182;SDS011;23991;52.430;10.586;2023-07-29T09:29:53;3.65;;;1.30;;
38182;SDS011;23991;52.430;10.586;2023-07-29T09:32:21;2.33;;;1.35;;
38182;SDS011;23991;52.430;10.586;2023-07-29T09:34:48;1.92;;;1.05;;
38182;SDS011;23991;52.430;10.586;2023-07-29T09:37:17;1.67;;;1.08;;
38182;SDS011;23991;52.430;10.586;2023-07-29T09:39:46;2.50;;;1.10;;
38182;SDS011;23991;52.430;10.586;2023-07-29T09:42:19;2.20;;;1.38;;
38182;SDS011;23991;52.430;10.586;2023-07-29T09:44:49;2.53;;;1.20;;
38182;SDS011;23991;52.430;10.586;2023-07-29T09:47:21;1.63;;;1.10;;
38182;SDS011;23991;52.430;10.586;2023-07-29T09:49:49;2.72;;;1.38;;
38182;SDS011;23991;52.430;10.586;2023-07-29T09:52:16;1.70;;;1.20;;
38182;SDS011;23991;52.430;10.586;2023-07-29T09:57:15;1.90;;;1.40;;
38182;SDS011;23991;52.430;10.586;2023-07-29T09:59:43;1.75;;;1.40;;
38182;SDS011;23991;52.430;10.586;2023-07-29T10:02:17;3.03;;;1.50;;
38182;SDS011;23991;52.430;10.586;2023-07-29T10:04:43;1.98;;;1.40;;
38182;SDS011;23991;52.430;10.586;2023-07-29T10:07:11;3.10;;;1.40;;
38182;SDS011;23991;52.430;10.586;2023-07-29T10:09:38;2.22;;;1.30;;
38182;SDS011;23991;52.430;10.586;2023-07-29T10:12:05;3.83;;;1.60;;
38182;SDS011;23991;52.430;10.586;2023-07-29T10:45:18;4.72;;;1.08;;
38182;SDS011;23991;52.430;10.586;2023-07-29T10:47:44;2.00;;;1.00;;
38182;SDS011;23991;52.430;10.586;2023-07-29T10:50:17;1.70;;;1.20;;
38182;SDS011;23991;52.430;10.586;2023-07-29T10:52:48;4.07;;;1.33;;
38182;SDS011;23991;52.430;10.586;2023-07-29T10:55:25;2.25;;;1.33;;
38182;SDS011;23991;52.430;10.586;2023-07-29T10:58:13;2.83;;;1.25;;
38182;SDS011;23991;52.430;10.586;2023-07-29T11:00:43;1.83;;;1.35;;
38182;SDS011;23991;52.430;10.586;2023-07-29T11:03:11;2.38;;;1.63;;
38182;SDS011;23991;52.430;10.586;2023-07-29T11:05:51;1.90;;;1.30;;
38182;SDS011;23991;52.430;10.586;2023-07-29T11:08:18;3.83;;;1.77;;
38182;SDS011;23991;52.430;10.586;2023-07-29T11:10:58;2.20;;;1.70;;
38182;SDS011;23991;52.430;10.586;2023-07-29T11:13:26;6.40;;;1.90;;
38182;SDS011;23991;52.430;10.586;2023-07-29T11:15:53;4.07;;;1.80;;
38182;SDS011;23991;52.430;10.586;2023-07-29T11:18:19;2.65;;;1.65;;
38182;SDS011;23991;52.430;10.586;2023-07-29T11:20:46;2.67;;;1.70;;
38182;SDS011;23991;52.430;10.586;2023-07-29T11:23:12;2.35;;;1.90;;
38182;SDS011;23991;52.430;10.586;2023-07-29T11:25:38;2.38;;;2.10;;
38182;SDS011;23991;52.430;10.586;2023-07-29T11:28:04;2.78;;;1.85;;
38182;SDS011;23991;52.430;10.586;2023-07-29T11:30:30;2.78;;;1.90;;
38182;SDS011;23991;52.430;10.586;2023-07-29T11:32:56;2.47;;;2.17;;
38182;SDS011;23991;52.430;10.586;2023-07-29T11:35:24;3.00;;;2.45;;
38182;SDS011;23991;52.430;10.586;2023-07-29T11:37:50;3.00;;;2.70;;
38182;SDS011;23991;52.430;10.586;2023-07-29T11:40:17;3.88;;;2.78;;
38182;SDS011;23991;52.430;10.586;2023-07-29T11:42:47;3.45;;;2.50;;
38182;SDS011;23991;52.430;10.586;2023-07-29T12:16:28;4.63;;;4.22;;
38182;SDS011;23991;52.430;10.586;2023-07-29T12:19:02;5.25;;;4.25;;
38182;SDS011;23991;52.430;10.586;2023-07-29T12:21:29;4.85;;;4.38;;
38182;SDS011;23991;52.430;10.586;2023-07-29T12:23:56;4.05;;;3.67;;
38182;SDS011;23991;52.430;10.586;2023-07-29T12:26:22;4.00;;;3.60;;
38182;SDS011;23991;52.430;10.586;2023-07-29T12:28:53;4.00;;;3.60;;
38182;SDS011;23991;52.430;10.586;2023-07-29T12:31:21;3.67;;;3.35;;
38182;SDS011;23991;52.430;10.586;2023-07-29T12:33:47;5.78;;;2.90;;
38182;SDS011;23991;52.430;10.586;2023-07-29T12:36:20;3.17;;;2.88;;
38182;SDS011;23991;52.430;10.586;2023-07-29T12:38:46;3.78;;;2.85;;
38182;SDS011;23991;52.430;10.586;2023-07-29T12:41:11;4.82;;;2.88;;
38182;SDS011;23991;52.430;10.586;2023-07-29T12:43:39;2.67;;;2.13;;
38182;SDS011;23991;52.430;10.586;2023-07-29T12:46:08;3.15;;;2.30;;
38182;SDS011;23991;52.430;10.586;2023-07-29T12:48:39;3.40;;;2.70;;
38182;SDS011;23991;52.430;10.586;2023-07-29T12:51:08;3.47;;;2.60;;
38182;SDS011;23991;52.430;10.586;2023-07-29T12:53:40;3.50;;;2.45;;
38182;SDS011;23991;52.430;10.586;2023-07-29T12:56:07;5.15;;;2.72;;
38182;SDS011;23991;52.430;10.586;2023-07-29T12:58:33;4.82;;;2.67;;
38182;SDS011;23991;52.430;10.586;2023-07-29T13:00:59;4.78;;;2.30;;
38182;SDS011;23991;52.430;10.586;2023-07-29T13:03:24;2.60;;;2.03;;
38182;SDS011;23991;52.430;10.586;2023-07-29T13:05:50;2.53;;;2.10;;
38182;SDS011;23991;52.430;10.586;2023-07-29T13:08:17;4.35;;;1.73;;
38182;SDS011;23991;52.430;10.586;2023-07-29T13:10:42;2.88;;;1.80;;
38182;SDS011;23991;52.430;10.586;2023-07-29T13:13:08;2.55;;;1.70;;
38182;SDS011;23991;52.430;10.586;2023-07-29T13:15:36;2.38;;;1.50;;
38182;SDS011;23991;52.430;10.586;2023-07-29T13:18:02;5.13;;;1.60;;
38182;SDS011;23991;52.430;10.586;2023-07-29T13:20:32;2.50;;;1.90;;
38182;SDS011;23991;52.430;10.586;2023-07-29T13:22:58;1.95;;;1.48;;
38182;SDS011;23991;52.430;10.586;2023-07-29T13:25:25;1.83;;;1.40;;
38182;SDS011;23991;52.430;10.586;2023-07-29T13:27:50;2.72;;;1.48;;
38182;SDS011;23991;52.430;10.586;2023-07-29T13:30:16;3.80;;;1.40;;
38182;SDS011;23991;52.430;10.586;2023-07-29T13:32:42;3.28;;;1.33;;
38182;SDS011;23991;52.430;10.586;2023-07-29T13:35:09;3.38;;;1.65;;
38182;SDS011;23991;52.430;10.586;2023-07-29T13:37:35;4.40;;;1.50;;
38182;SDS011;23991;52.430;10.586;2023-07-29T13:40:00;1.65;;;1.20;;
38182;SDS011;23991;52.430;10.586;2023-07-29T13:42:26;3.13;;;1.25;;
38182;SDS011;23991;52.430;10.586;2023-07-29T13:44:52;4.38;;;1.40;;
38182;SDS011;23991;52.430;10.586;2023-07-29T13:47:17;2.55;;;1.10;;
38182;SDS011;23991;52.430;10.586;2023-07-29T13:49:43;2.30;;;1.30;;
38182;SDS011;23991;52.430;10.586;2023-07-29T13:52:08;2.35;;;1.45;;
38182;SDS011;23991;52.430;10.586;2023-07-29T13:54:36;1.48;;;1.05;;
38182;SDS011;23991;52.430;10.586;2023-07-29T13:57:03;2.15;;;1.30;;
38182;SDS011;23991;52.430;10.586;2023-07-29T13:59:33;2.00;;;1.20;;
38182;SDS011;23991;52.430;10.586;2023-07-29T14:01:58;1.70;;;1.13;;
38182;SDS011;23991;52.430;10.586;2023-07-29T14:04:24;2.53;;;1.35;;
38182;SDS011;23991;52.430;10.586;2023-07-29T14:06:49;1.65;;;1.10;;
38182;SDS011;23991;52.430;10.586;2023-07-29T14:09:15;1.35;;;1.13;;
38182;SDS011;23991;52.430;10.586;2023-07-29T14:11:41;1.80;;;1.15;;
38182;SDS011;23991;52.430;10.586;2023-07-29T14:14:08;1.17;;;1.00;;
38182;SDS011;23991;52.430;10.586;2023-07-29T14:16:34;1.63;;;1.20;;
38182;SDS011;23991;52.430;10.586;2023-07-29T14:19:00;1.23;;;1.00;;
38182;SDS011;23991;52.430;10.586;2023-07-29T14:21:27;1.30;;;1.10;;
38182;SDS011;23991;52.430;10.586;2023-07-29T14:23:53;5.10;;;1.75;;
38182;SDS011;23991;52.430;10.586;2023-07-29T14:26:20;2.13;;;1.30;;
38182;SDS011;23991;52.430;10.586;2023-07-29T14:28:49;2.40;;;1.30;;
38182;SDS011;23991;52.430;10.586;2023-07-29T14:31:36;1.75;;;1.17;;
38182;SDS011;23991;52.430;10.586;2023-07-29T14:34:05;2.20;;;1.30;;
38182;SDS011;23991;52.430;10.586;2023-07-29T14:36:31;1.70;;;1.27;;
38182;SDS011;23991;52.430;10.586;2023-07-29T14:38:56;1.52;;;1.00;;
38182;SDS011;23991;52.430;10.586;2023-07-29T14:41:26;2.03;;;1.05;;
38182;SDS011;23991;52.430;10.586;2023-07-29T14:43:55;2.75;;;1.30;;
38182;SDS011;23991;52.430;10.586;2023-07-29T14:46:22;1.75;;;1.30;;
38182;SDS011;23991;52.430;10.586;2023-07-29T14:48:48;2.55;;;1.40;;
38182;SDS011;23991;52.430;10.586;2023-07-29T14:51:14;1.48;;;1.20;;
38182;SDS011;23991;52.430;10.586;2023-07-29T14:53:39;1.60;;;1.30;;
38182;SDS011;23991;52.430;10.586;2023-07-29T14:56:05;1.30;;;1.10;;
38182;SDS011;23991;52.430;10.586;2023-07-29T14:58:31;2.22;;;1.20;;
38182;SDS011;23991;52.430;10.586;2023-07-29T15:00:56;2.28;;;1.20;;
38182;SDS011;23991;52.430;10.586;2023-07-29T15:03:23;1.38;;;1.17;;
38182;SDS011;23991;52.430;10.586;2023-07-29T15:05:52;1.13;;;0.90;;
38182;SDS011;23991;52.430;10.586;2023-07-29T15:08:21;1.40;;;1.10;;
38182;SDS011;23991;52.430;10.586;2023-07-29T15:10:47;2.17;;;1.38;;
38182;SDS011;23991;52.430;10.586;2023-07-29T15:13:13;4.45;;;1.42;;
38182;SDS011;23991;52.430;10.586;2023-07-29T15:15:44;1.70;;;1.20;;
38182;SDS011;23991;52.430;10.586;2023-07-29T15:18:11;1.50;;;1.20;;
38182;SDS011;23991;52.430;10.586;2023-07-29T15:20:37;1.50;;;1.10;;
38182;SDS011;23991;52.430;10.586;2023-07-29T15:23:02;1.75;;;1.08;;
38182;SDS011;23991;52.430;10.586;2023-07-29T15:25:28;1.80;;;1.30;;
38182;SDS011;23991;52.430;10.586;2023-07-29T15:27:55;2.10;;;1.45;;
38182;SDS011;23991;52.430;10.586;2023-07-29T15:30:23;3.58;;;1.30;;
38182;SDS011;23991;52.430;10.586;2023-07-29T15:32:50;1.40;;;1.00;;
38182;SDS011;23991;52.430;10.586;2023-07-29T15:35:16;1.77;;;1.13;;
38182;SDS011;23991;52.430;10.586;2023-07-29T15:37:41;2.55;;;1.20;;
38182;SDS011;23991;52.430;10.586;2023-07-29T15:40:11;3.15;;;1.40;;
38182;SDS011;23991;52.430;10.586;2023-07-29T15:42:36;1.65;;;1.25;;